createdAt,value
2018-05-10T00:01:24.807Z,58.28
2018-05-10T00:03:52.248Z,58.22
2018-05-10T00:06:19.716Z,57.71
2018-05-10T00:08:47.178Z,59.22
2018-05-10T00:11:14.629Z,57.93
2018-05-10T00:13:42.078Z,58.19
2018-05-10T00:16:10.502Z,57.10
2018-05-10T00:18:37.973Z,57.88
2018-05-10T00:21:05.417Z,57.26
2018-05-10T00:23:32.889Z,56.57
2018-05-10T00:26:00.505Z,56.45
2018-05-10T00:28:27.998Z,56.53
2018-05-10T00:30:55.491Z,56.81
2018-05-10T00:33:22.955Z,58.00
2018-05-10T00:35:50.386Z,58.50
2018-05-10T00:38:17.833Z,57.55
2018-05-10T00:40:45.275Z,56.68
2018-05-10T00:43:12.706Z,57.18
2018-05-10T00:45:40.129Z,56.01
2018-05-10T00:48:07.557Z,56.69
2018-05-10T00:50:35.001Z,56.44
2018-05-10T00:53:02.527Z,56.56
2018-05-10T00:55:30.057Z,56.44
2018-05-10T00:57:57.499Z,57.53
2018-05-10T01:00:24.940Z,57.91
2018-05-10T01:02:52.369Z,57.54
2018-05-10T01:05:19.904Z,57.22
2018-05-10T01:07:47.347Z,58.09
2018-05-10T01:10:14.793Z,57.73
2018-05-10T01:12:42.243Z,57.80
2018-05-10T01:15:09.691Z,56.97
2018-05-10T01:17:37.176Z,56.71
2018-05-10T01:20:04.607Z,56.70
2018-05-10T01:22:32.102Z,57.64
2018-05-10T01:24:59.544Z,56.36
2018-05-10T01:27:27.029Z,57.13
2018-05-10T01:29:54.576Z,57.94
2018-05-10T01:32:22.027Z,56.79
2018-05-10T01:35:01.322Z,57.13
2018-05-10T01:37:28.816Z,57.40
2018-05-10T01:39:56.281Z,58.10
2018-05-10T01:42:23.736Z,58.33
2018-05-10T01:44:51.180Z,59.40
2018-05-10T01:47:18.806Z,59.72
2018-05-10T01:49:46.201Z,59.55
2018-05-10T01:52:13.737Z,59.82
2018-05-10T01:54:41.228Z,59.92
2018-05-10T01:57:08.661Z,60.01
2018-05-10T01:59:36.095Z,59.81
2018-05-10T02:02:03.542Z,60.53
2018-05-10T02:04:30.982Z,61.62
2018-05-10T02:06:58.458Z,61.12
2018-05-10T02:09:25.911Z,60.24
2018-05-10T02:11:53.343Z,60.76
2018-05-10T02:14:20.880Z,60.54
2018-05-10T02:16:48.358Z,61.26
2018-05-10T02:19:15.891Z,62.02
2018-05-10T02:21:43.398Z,61.35
2018-05-10T02:24:11.032Z,61.77
2018-05-10T02:26:38.458Z,61.67
2018-05-10T02:29:05.927Z,60.99
2018-05-10T02:31:33.364Z,61.67
2018-05-10T02:34:00.804Z,61.50
2018-05-10T02:36:28.263Z,59.63
2018-05-10T02:38:55.693Z,60.09
2018-05-10T02:41:23.143Z,60.15
2018-05-10T02:43:50.594Z,59.57
2018-05-10T02:46:18.072Z,59.62
2018-05-10T02:48:45.496Z,59.93
2018-05-10T02:51:12.935Z,59.63
2018-05-10T02:53:40.378Z,60.26
2018-05-10T02:56:07.822Z,60.42
2018-05-10T02:58:35.369Z,60.83
2018-05-10T03:01:02.850Z,61.34
2018-05-10T03:03:30.278Z,59.69
2018-05-10T03:05:57.764Z,60.17
2018-05-10T03:08:25.271Z,59.61
2018-05-10T03:10:52.831Z,59.67
2018-05-10T03:13:20.406Z,59.41
2018-05-10T03:15:47.853Z,59.05
2018-05-10T03:18:15.391Z,59.42
2018-05-10T03:20:42.856Z,59.27
2018-05-10T03:23:10.307Z,58.61
2018-05-10T03:25:37.734Z,58.77
2018-05-10T03:28:05.177Z,58.81
2018-05-10T03:30:32.670Z,59.12
2018-05-10T03:33:00.120Z,59.40
2018-05-10T03:35:27.548Z,59.23
2018-05-10T03:37:54.964Z,59.62
2018-05-10T03:40:22.404Z,59.52
2018-05-10T03:42:49.829Z,59.25
2018-05-10T03:45:17.266Z,59.38
2018-05-10T03:47:44.693Z,59.32
2018-05-10T03:50:12.242Z,59.04
2018-05-10T03:52:39.674Z,59.47
2018-05-10T03:55:07.108Z,58.35
2018-05-10T03:57:34.582Z,58.52
2018-05-10T04:00:02.153Z,58.24
2018-05-10T04:02:41.409Z,58.24
2018-05-10T04:08:26.897Z,57.89
2018-05-10T04:11:06.053Z,57.58
2018-05-10T04:13:33.488Z,57.72
2018-05-10T04:16:00.987Z,57.57
2018-05-10T04:18:28.418Z,57.43
2018-05-10T04:20:56.081Z,57.81
2018-05-10T04:23:23.525Z,58.32
2018-05-10T04:25:50.953Z,58.46
2018-05-10T04:28:18.402Z,58.65
2018-05-10T04:30:45.821Z,58.61
2018-05-10T04:33:13.297Z,59.45
2018-05-10T04:35:40.816Z,58.98
2018-05-10T04:38:08.225Z,58.66
2018-05-10T04:40:35.667Z,57.88
2018-05-10T04:43:03.141Z,56.61
2018-05-10T04:45:30.584Z,57.28
2018-05-10T04:47:58.013Z,57.13
2018-05-10T04:50:25.513Z,56.16
2018-05-10T04:52:52.943Z,55.76
2018-05-10T04:55:20.378Z,55.49
2018-05-10T04:57:47.825Z,54.05
2018-05-10T05:00:15.360Z,53.87
2018-05-10T05:02:42.821Z,53.33
2018-05-10T05:05:10.260Z,51.97
2018-05-10T05:07:37.694Z,51.63
2018-05-10T05:10:05.149Z,51.94
2018-05-10T05:12:32.583Z,51.37
2018-05-10T05:15:00.041Z,50.66
2018-05-10T05:17:27.537Z,51.30
2018-05-10T05:19:55.028Z,50.89
2018-05-10T05:22:22.452Z,51.56
2018-05-10T05:24:49.917Z,50.62
2018-05-10T05:27:17.368Z,50.67
2018-05-10T05:29:44.836Z,50.04
2018-05-10T05:32:12.286Z,48.78
2018-05-10T05:34:39.763Z,49.24
2018-05-10T05:37:07.184Z,48.96
2018-05-10T05:39:34.638Z,47.86
2018-05-10T05:42:02.087Z,46.56
2018-05-10T05:44:29.568Z,47.04
2018-05-10T05:46:56.997Z,46.47
2018-05-10T05:49:24.430Z,46.89
2018-05-10T05:51:51.881Z,47.07
2018-05-10T05:54:19.331Z,47.32
2018-05-10T05:56:46.809Z,47.26
2018-05-10T05:59:14.242Z,47.21
2018-05-10T06:01:41.675Z,47.68
2018-05-10T06:04:09.125Z,46.23
2018-05-10T06:06:36.614Z,46.86
2018-05-10T06:09:05.898Z,47.12
2018-05-10T06:11:33.396Z,47.70
2018-05-10T06:14:00.834Z,46.46
2018-05-10T06:16:28.267Z,45.51
2018-05-10T06:18:55.700Z,46.45
2018-05-10T06:21:23.121Z,45.36
2018-05-10T06:23:50.549Z,45.96
2018-05-10T06:26:17.966Z,46.51
2018-05-10T06:28:45.428Z,46.45
2018-05-10T06:31:12.916Z,47.59
2018-05-10T06:33:40.352Z,47.36
2018-05-10T06:36:07.792Z,47.10
2018-05-10T06:38:35.266Z,47.27
2018-05-10T06:41:02.708Z,46.45
2018-05-10T06:43:30.164Z,46.48
2018-05-10T06:45:57.658Z,44.87
2018-05-10T06:48:25.108Z,45.20
2018-05-10T06:50:52.578Z,44.50
2018-05-10T06:53:20.021Z,44.18
2018-05-10T06:55:47.459Z,44.83
2018-05-10T06:58:14.893Z,44.69
2018-05-10T07:00:42.377Z,43.96
2018-05-10T07:03:09.809Z,43.76
2018-05-10T07:05:37.493Z,45.98
2018-05-10T07:08:05.076Z,44.49
2018-05-10T07:10:32.582Z,43.78
2018-05-10T07:13:00.127Z,44.55
2018-05-10T07:15:27.622Z,45.73
2018-05-10T07:17:55.084Z,46.73
2018-05-10T07:20:22.546Z,47.13
2018-05-10T07:22:50.079Z,48.29
2018-05-10T07:25:17.611Z,47.89
2018-05-10T07:27:45.080Z,46.00
2018-05-10T07:30:12.473Z,47.31
2018-05-10T07:32:39.913Z,47.45
2018-05-10T07:35:07.352Z,48.52
2018-05-10T07:37:34.782Z,47.47
2018-05-10T07:40:02.217Z,48.61
2018-05-10T07:42:29.670Z,48.97
2018-05-10T07:44:57.115Z,49.85
2018-05-10T07:47:24.708Z,48.25
2018-05-10T07:49:56.417Z,48.43
2018-05-10T07:52:23.877Z,47.35
2018-05-10T07:54:51.316Z,46.23
2018-05-10T07:57:19.023Z,46.67
2018-05-10T07:59:54.691Z,45.81
2018-05-10T08:02:22.417Z,45.66
2018-05-10T08:04:49.937Z,46.60
2018-05-10T08:07:17.389Z,44.92
2018-05-10T08:09:44.842Z,45.61
2018-05-10T08:12:12.353Z,46.03
2018-05-10T08:14:39.794Z,45.79
2018-05-10T08:17:07.277Z,45.53
2018-05-10T08:19:34.759Z,45.47
2018-05-10T08:22:02.192Z,44.60
2018-05-10T08:24:29.681Z,45.84
2018-05-10T08:26:57.212Z,45.09
2018-05-10T08:29:32.474Z,44.08
2018-05-10T08:31:59.905Z,44.21
2018-05-10T08:34:27.795Z,43.73
2018-05-10T08:36:55.319Z,42.83
2018-05-10T08:39:22.749Z,41.67
2018-05-10T08:41:50.237Z,42.63
2018-05-10T08:44:17.714Z,43.57
2018-05-10T08:46:45.156Z,43.98
2018-05-10T08:49:12.605Z,43.28
2018-05-10T08:51:40.090Z,44.44
2018-05-10T08:54:07.536Z,44.08
2018-05-10T08:56:35.001Z,43.66
2018-05-10T08:59:02.459Z,44.10
2018-05-10T09:01:29.905Z,43.11
2018-05-10T09:03:57.345Z,42.23
2018-05-10T09:06:30.805Z,41.24
2018-05-10T09:08:58.250Z,38.28
2018-05-10T09:11:25.684Z,39.29
2018-05-10T09:13:53.144Z,39.12
2018-05-10T09:16:20.573Z,40.17
2018-05-10T09:18:48.021Z,41.78
2018-05-10T09:21:15.576Z,42.25
2018-05-10T09:23:43.040Z,43.75
2018-05-10T09:26:10.529Z,44.35
2018-05-10T09:28:37.977Z,43.92
2018-05-10T09:31:05.483Z,44.24
2018-05-10T09:33:33.005Z,45.17
2018-05-10T09:36:00.435Z,46.46
2018-05-10T09:38:27.880Z,46.65
2018-05-10T09:40:55.332Z,46.86
2018-05-10T09:43:22.767Z,47.42
2018-05-10T09:45:50.227Z,47.55
2018-05-10T09:48:17.689Z,47.66
2018-05-10T09:50:45.268Z,47.54
2018-05-10T09:53:12.696Z,46.68
2018-05-10T09:55:40.225Z,46.52
2018-05-10T09:58:07.780Z,46.74
2018-05-10T10:00:35.214Z,46.93
2018-05-10T10:03:02.685Z,46.69
2018-05-10T10:05:30.105Z,46.62
2018-05-10T10:07:57.590Z,46.50
2018-05-10T10:10:25.273Z,46.69
2018-05-10T10:12:52.693Z,46.79
2018-05-10T10:15:20.162Z,47.92
2018-05-10T10:17:47.604Z,49.32
2018-05-10T10:20:15.091Z,49.61
2018-05-10T10:22:42.534Z,50.56
2018-05-10T10:25:10.072Z,51.22
2018-05-10T10:27:37.453Z,51.33
2018-05-10T10:30:04.929Z,51.39
2018-05-10T10:32:32.355Z,51.40
2018-05-10T10:34:59.822Z,51.64
2018-05-10T10:37:27.258Z,51.88
2018-05-10T10:39:54.738Z,52.24
2018-05-10T10:42:22.249Z,52.04
2018-05-10T10:44:49.668Z,51.84
2018-05-10T10:47:17.150Z,51.21
2018-05-10T10:49:44.577Z,51.51
2018-05-10T10:52:12.041Z,51.34
2018-05-10T10:54:39.528Z,49.93
2018-05-10T10:57:07.024Z,50.85
2018-05-10T10:59:34.452Z,50.21
2018-05-10T11:02:01.900Z,49.13
2018-05-10T11:04:29.334Z,48.11
2018-05-10T11:06:56.799Z,47.39
2018-05-10T11:09:24.224Z,46.67
2018-05-10T11:11:51.647Z,45.78
2018-05-10T11:14:19.115Z,43.86
2018-05-10T11:16:47.489Z,42.56
2018-05-10T11:19:14.977Z,39.75
2018-05-10T11:21:43.050Z,39.16
2018-05-10T11:24:10.511Z,36.74
2018-05-10T11:26:37.961Z,38.81
2018-05-10T11:29:05.424Z,37.56
2018-05-10T11:31:32.905Z,36.66
2018-05-10T11:34:00.442Z,36.45
2018-05-10T11:36:27.907Z,36.71
2018-05-10T11:38:55.467Z,35.64
2018-05-10T11:41:22.984Z,35.75
2018-05-10T11:43:50.383Z,34.67
2018-05-10T11:46:17.817Z,35.31
2018-05-10T11:48:45.306Z,37.60
2018-05-10T11:51:12.724Z,35.98
2018-05-10T11:53:40.264Z,36.30
2018-05-10T11:56:08.137Z,35.93
2018-05-10T11:58:35.567Z,35.73
2018-05-10T12:01:03.105Z,37.61
2018-05-10T12:03:30.544Z,38.25
2018-05-10T12:05:58.000Z,37.38
2018-05-10T12:08:25.577Z,35.94
2018-05-10T12:10:53.012Z,34.09
2018-05-10T12:13:20.462Z,33.77
2018-05-10T12:15:47.899Z,30.04
2018-05-10T12:18:15.365Z,32.86
2018-05-10T12:20:42.806Z,34.79
2018-05-10T12:23:10.246Z,35.86
2018-05-10T12:25:37.828Z,35.31
2018-05-10T12:28:05.208Z,33.43
2018-05-10T12:30:32.696Z,34.10
2018-05-10T12:33:00.125Z,33.67
2018-05-10T12:35:27.569Z,30.32
2018-05-10T12:37:55.002Z,29.72
2018-05-10T12:40:22.433Z,29.65
2018-05-10T12:42:49.879Z,29.99
2018-05-10T12:45:17.326Z,32.45
2018-05-10T12:47:44.872Z,36.00
2018-05-10T12:50:12.379Z,40.08
2018-05-10T12:52:39.842Z,42.26
2018-05-10T12:55:07.347Z,45.57
2018-05-10T12:57:34.796Z,48.50
2018-05-10T13:00:02.231Z,51.10
2018-05-10T13:02:29.674Z,51.37
2018-05-10T13:04:57.196Z,51.06
2018-05-10T13:07:24.616Z,52.60
2018-05-10T13:09:52.176Z,53.55
2018-05-10T13:12:19.641Z,54.96
2018-05-10T13:14:47.203Z,55.78
2018-05-10T13:17:14.630Z,55.41
2018-05-10T13:19:42.121Z,55.55
2018-05-10T13:22:09.549Z,54.93
2018-05-10T13:24:36.981Z,53.49
2018-05-10T13:27:04.432Z,52.46
2018-05-10T13:29:31.865Z,52.50
2018-05-10T13:31:59.325Z,52.33
2018-05-10T13:34:26.886Z,52.04
2018-05-10T13:36:54.314Z,52.53
2018-05-10T13:39:21.750Z,52.57
2018-05-10T13:41:49.195Z,53.28
2018-05-10T13:44:16.706Z,52.67
2018-05-10T13:46:44.154Z,54.10
2018-05-10T13:49:11.626Z,53.90
2018-05-10T13:51:39.066Z,54.38
2018-05-10T13:54:06.515Z,53.15
2018-05-10T13:56:33.975Z,55.11
2018-05-10T13:59:01.468Z,55.43
2018-05-10T14:01:28.845Z,55.79
2018-05-10T14:03:56.341Z,57.07
2018-05-10T14:06:23.768Z,56.87
2018-05-10T14:08:51.282Z,56.31
2018-05-10T14:11:18.716Z,56.90
2018-05-10T14:13:46.230Z,57.00
2018-05-10T14:16:13.676Z,58.12
2018-05-10T14:18:41.209Z,59.40
2018-05-10T14:21:08.645Z,59.23
2018-05-10T14:23:36.225Z,59.66
2018-05-10T14:26:03.670Z,61.36
2018-05-10T14:28:31.109Z,59.70
2018-05-10T14:30:58.586Z,61.27
2018-05-10T14:33:26.015Z,61.88
2018-05-10T14:35:53.496Z,62.78
2018-05-10T14:38:20.961Z,62.59
2018-05-10T14:40:48.405Z,63.02
2018-05-10T14:43:15.917Z,63.96
2018-05-10T14:45:43.417Z,65.59
2018-05-10T14:48:10.863Z,64.88
2018-05-10T14:50:38.344Z,65.95
2018-05-10T14:53:05.906Z,66.57
2018-05-10T14:55:33.418Z,67.37
2018-05-10T14:58:00.838Z,66.85
2018-05-10T15:00:28.520Z,66.30
2018-05-10T15:02:56.337Z,66.00
2018-05-10T15:05:23.780Z,67.21
2018-05-10T15:07:51.279Z,68.11
2018-05-10T15:10:18.815Z,68.19
2018-05-10T15:12:46.268Z,68.39
2018-05-10T15:15:13.726Z,70.17
2018-05-10T15:17:41.190Z,71.31
2018-05-10T15:20:08.752Z,73.52
2018-05-10T15:22:36.202Z,75.25
2018-05-10T15:25:03.685Z,77.04
2018-05-10T15:27:31.139Z,78.32
2018-05-10T15:29:58.571Z,77.32
2018-05-10T15:32:26.042Z,81.00
2018-05-10T15:34:53.524Z,77.62
2018-05-10T15:37:21.067Z,80.09
2018-05-10T15:39:48.533Z,80.79
2018-05-10T15:42:16.027Z,81.02
2018-05-10T15:44:43.491Z,81.58
2018-05-10T15:47:10.943Z,86.62
2018-05-10T15:49:38.411Z,88.31
2018-05-10T15:52:05.855Z,86.31
2018-05-10T15:54:33.470Z,87.17
2018-05-10T15:57:01.032Z,87.13
2018-05-10T15:59:28.671Z,87.85
2018-05-10T16:01:56.057Z,88.05
2018-05-10T16:04:23.586Z,87.48
2018-05-10T16:06:51.039Z,88.24
2018-05-10T16:09:18.498Z,87.37
2018-05-10T16:11:45.970Z,87.31
2018-05-10T16:14:13.408Z,86.26
2018-05-10T16:16:40.985Z,86.89
2018-05-10T16:19:08.440Z,86.16
2018-05-10T16:21:35.931Z,84.25
2018-05-10T16:24:03.559Z,84.19
2018-05-10T16:26:31.064Z,82.12
2018-05-10T16:28:58.489Z,84.48
2018-05-10T16:31:25.932Z,81.60
2018-05-10T16:33:53.485Z,83.79
2018-05-10T16:36:20.978Z,82.68
2018-05-10T16:38:48.621Z,83.05
2018-05-10T16:41:16.170Z,81.71
2018-05-10T16:43:43.623Z,79.74
2018-05-10T16:46:11.081Z,79.33
2018-05-10T16:48:38.745Z,79.92
2018-05-10T16:51:06.207Z,79.31
2018-05-10T16:53:33.641Z,79.81
2018-05-10T16:56:01.112Z,77.45
2018-05-10T16:58:28.545Z,79.88
2018-05-10T17:00:56.003Z,74.88
2018-05-10T17:03:23.448Z,77.84
2018-05-10T17:05:50.933Z,77.36
2018-05-10T17:08:18.394Z,78.19
2018-05-10T17:10:45.860Z,78.06
2018-05-10T17:13:13.280Z,79.24
2018-05-10T17:15:40.797Z,79.62
2018-05-10T17:18:08.438Z,79.89
2018-05-10T17:20:35.877Z,80.37
2018-05-10T17:23:03.549Z,77.72
2018-05-10T17:25:30.980Z,79.50
2018-05-10T17:27:58.454Z,79.89
2018-05-10T17:30:25.889Z,78.27
2018-05-10T17:32:53.345Z,79.60
2018-05-10T17:35:20.796Z,79.71
2018-05-10T17:37:48.221Z,78.96
2018-05-10T17:40:15.683Z,78.89
2018-05-10T17:42:43.126Z,79.64
2018-05-10T17:45:10.666Z,78.59
2018-05-10T17:47:38.101Z,78.75
2018-05-10T17:50:05.566Z,77.97
2018-05-10T17:52:32.998Z,79.23
2018-05-10T17:55:00.460Z,77.94
2018-05-10T17:57:27.907Z,78.86
2018-05-10T17:59:55.358Z,77.76
2018-05-10T18:02:22.883Z,79.26
2018-05-10T18:04:50.425Z,78.32
2018-05-10T18:07:17.887Z,78.80
2018-05-10T18:09:45.310Z,77.71
2018-05-10T18:12:12.838Z,76.36
2018-05-10T18:14:40.293Z,77.86
2018-05-10T18:17:07.735Z,76.28
2018-05-10T18:19:35.199Z,76.09
2018-05-10T18:22:02.732Z,77.74
2018-05-10T18:24:30.177Z,75.83
2018-05-10T18:26:57.597Z,74.49
2018-05-10T18:29:25.025Z,75.36
2018-05-10T18:31:52.472Z,73.75
2018-05-10T18:34:19.904Z,73.53
2018-05-10T18:36:47.373Z,73.12
2018-05-10T18:39:14.795Z,74.09
2018-05-10T18:41:42.287Z,73.14
2018-05-10T18:44:09.714Z,72.19
2018-05-10T18:46:37.162Z,70.88
2018-05-10T18:49:04.658Z,71.33
2018-05-10T18:51:32.091Z,71.55
2018-05-10T18:53:59.703Z,71.54
2018-05-10T18:56:27.150Z,71.82
2018-05-10T18:58:54.576Z,71.40
2018-05-10T19:01:22.019Z,71.33
2018-05-10T19:03:49.468Z,71.47
2018-05-10T19:06:16.970Z,72.50
2018-05-10T19:08:44.420Z,70.85
2018-05-10T19:11:11.863Z,71.46
2018-05-10T19:13:39.389Z,70.58
2018-05-10T19:16:06.830Z,70.85
2018-05-10T19:18:34.293Z,70.64
2018-05-10T19:21:01.766Z,71.87
2018-05-10T19:23:29.348Z,71.79
2018-05-10T19:25:56.922Z,71.33
2018-05-10T19:28:24.363Z,71.65
2018-05-10T19:30:51.822Z,69.10
2018-05-10T19:33:19.255Z,69.62
2018-05-10T19:35:46.754Z,71.53
2018-05-10T19:38:14.357Z,71.41
2018-05-10T19:40:41.749Z,71.99
2018-05-10T19:43:09.202Z,72.41
2018-05-10T19:45:36.644Z,69.41
2018-05-10T19:48:04.076Z,69.50
2018-05-10T19:50:31.525Z,70.10
2018-05-10T19:52:58.964Z,70.28
2018-05-10T19:55:26.404Z,70.61
2018-05-10T19:57:53.870Z,71.04
2018-05-10T20:00:21.296Z,69.96
2018-05-10T20:02:48.749Z,69.09
2018-05-10T20:05:16.237Z,68.77
2018-05-10T20:07:43.671Z,71.04
2018-05-10T20:10:11.193Z,69.78
2018-05-10T20:12:38.624Z,69.84
2018-05-10T20:15:06.184Z,69.13
2018-05-10T20:17:33.641Z,67.73
2018-05-10T20:20:01.074Z,66.98
2018-05-10T20:22:28.524Z,68.22
2018-05-10T20:24:55.964Z,68.34
2018-05-10T20:27:23.414Z,66.50
2018-05-10T20:29:50.897Z,68.25
2018-05-10T20:32:18.436Z,66.21
2018-05-10T20:34:46.214Z,65.16
2018-05-10T20:37:13.737Z,65.57
2018-05-10T20:39:41.282Z,65.73
2018-05-10T20:42:08.862Z,66.56
2018-05-10T20:44:36.666Z,68.01
2018-05-10T20:47:04.126Z,68.01
2018-05-10T20:49:31.585Z,67.17
2018-05-10T20:51:59.143Z,68.71
2018-05-10T20:54:26.620Z,66.65
2018-05-10T20:56:54.044Z,66.95
2018-05-10T20:59:21.531Z,67.78
2018-05-10T21:01:49.077Z,67.75
2018-05-10T21:04:16.536Z,67.79
2018-05-10T21:06:45.159Z,68.07
2018-05-10T21:09:12.582Z,66.73
2018-05-10T21:11:40.005Z,66.02
2018-05-10T21:14:07.432Z,64.53
2018-05-10T21:16:35.096Z,65.48
2018-05-10T21:19:02.495Z,66.61
2018-05-10T21:21:29.929Z,66.81
2018-05-10T21:23:57.687Z,68.30
2018-05-10T21:26:25.133Z,67.33
2018-05-10T21:28:52.574Z,67.81
2018-05-10T21:31:20.003Z,68.91
2018-05-10T21:33:47.469Z,70.51
2018-05-10T21:36:14.901Z,70.03
2018-05-10T21:38:42.332Z,67.64
2018-05-10T21:41:09.776Z,69.12
2018-05-10T21:43:37.248Z,70.35
2018-05-10T21:46:04.817Z,69.86
2018-05-10T21:48:32.249Z,70.13
2018-05-10T21:50:59.679Z,70.64
2018-05-10T21:53:27.106Z,69.80
2018-05-10T21:55:54.536Z,70.58
2018-05-10T21:58:22.114Z,71.21
2018-05-10T22:00:49.544Z,72.01
2018-05-10T22:03:16.964Z,72.76
2018-05-10T22:05:44.417Z,73.22
2018-05-10T22:08:11.849Z,73.22
2018-05-10T22:10:39.314Z,72.71
2018-05-10T22:13:06.974Z,72.86
2018-05-10T22:15:34.425Z,73.20
2018-05-10T22:18:01.946Z,73.12
2018-05-10T22:20:29.335Z,73.83
2018-05-10T22:22:56.758Z,73.17
2018-05-10T22:25:24.214Z,73.90
2018-05-10T22:27:51.653Z,73.34
2018-05-10T22:30:19.097Z,74.04
2018-05-10T22:32:46.634Z,73.80
2018-05-10T22:35:14.167Z,74.06
2018-05-10T22:37:41.569Z,74.43
2018-05-10T22:40:09.025Z,73.47
2018-05-10T22:42:36.558Z,74.47
2018-05-10T22:45:04.052Z,74.42
2018-05-10T22:47:31.588Z,74.64
2018-05-10T22:49:59.157Z,74.23
2018-05-10T22:52:26.699Z,74.00
2018-05-10T22:54:54.156Z,73.84
2018-05-10T22:57:21.597Z,74.43
2018-05-10T22:59:49.101Z,74.00
2018-05-10T23:02:16.528Z,73.66
2018-05-10T23:04:44.008Z,74.17
2018-05-10T23:07:11.458Z,74.02
2018-05-10T23:09:39.006Z,74.08
2018-05-10T23:12:06.399Z,74.33
2018-05-10T23:14:33.910Z,73.80
2018-05-10T23:17:01.383Z,74.68
2018-05-10T23:19:28.865Z,75.12
2018-05-10T23:21:56.429Z,75.94
2018-05-10T23:24:23.861Z,76.10
2018-05-10T23:26:51.415Z,75.41
2018-05-10T23:29:18.856Z,75.39
2018-05-10T23:31:46.283Z,75.49
2018-05-10T23:34:13.769Z,74.95
2018-05-10T23:36:41.239Z,74.91
2018-05-10T23:41:33.275Z,74.71
2018-05-10T23:44:00.715Z,74.73
2018-05-10T23:46:28.162Z,74.90
2018-05-10T23:48:55.641Z,74.57
2018-05-10T23:51:23.101Z,74.51
2018-05-10T23:53:50.541Z,74.68
2018-05-10T23:56:17.989Z,75.26
2018-05-10T23:58:45.422Z,75.42
